createdAt,value
2023-05-05T00:01:09.156Z,13.12
2023-05-05T00:03:35.782Z,12.99
2023-05-05T00:06:02.760Z,12.77
2023-05-05T00:08:30.037Z,12.72
2023-05-05T00:10:57.602Z,12.71
2023-05-05T00:13:24.663Z,12.80
2023-05-05T00:15:53.308Z,13.08
2023-05-05T00:18:21.202Z,13.02
2023-05-05T00:20:48.692Z,12.94
2023-05-05T00:23:16.138Z,13.15
2023-05-05T00:25:42.857Z,13.11
2023-05-05T00:28:09.606Z,12.96
2023-05-05T00:30:36.396Z,12.83
2023-05-05T00:33:03.158Z,12.81
2023-05-05T00:35:29.808Z,12.86
2023-05-05T00:37:56.484Z,12.90
2023-05-05T00:40:23.458Z,12.89
2023-05-05T00:42:53.256Z,12.74
2023-05-05T00:45:20.329Z,12.81
2023-05-05T00:47:53.552Z,12.95
2023-05-05T00:50:30.981Z,12.85
2023-05-05T00:53:03.340Z,12.87
2023-05-05T00:55:30.913Z,12.86
2023-05-05T00:57:58.845Z,12.88
2023-05-05T01:00:26.428Z,12.77
2023-05-05T01:02:53.794Z,12.66
2023-05-05T01:05:23.429Z,12.61
2023-05-05T01:08:21.607Z,12.66
2023-05-05T01:11:20.901Z,12.69
2023-05-05T01:13:58.629Z,12.61
2023-05-05T01:16:27.305Z,12.56
2023-05-05T01:19:00.034Z,12.49
2023-05-05T01:21:32.616Z,12.43
2023-05-05T01:24:05.135Z,12.42
2023-05-05T01:26:45.575Z,12.47
2023-05-05T01:29:34.458Z,12.38
2023-05-05T01:32:13.246Z,12.29
2023-05-05T01:34:53.346Z,12.23
2023-05-05T01:37:44.135Z,12.50
2023-05-05T01:40:14.248Z,12.51
2023-05-05T01:42:43.424Z,12.26
2023-05-05T01:45:14.465Z,12.12
2023-05-05T01:47:43.882Z,11.96
2023-05-05T01:50:12.178Z,11.95
2023-05-05T01:52:41.077Z,11.87
2023-05-05T01:55:09.763Z,11.85
2023-05-05T01:57:38.996Z,11.91
2023-05-05T02:00:07.334Z,12.03
2023-05-05T02:02:37.367Z,12.06
2023-05-05T02:05:05.623Z,11.84
2023-05-05T02:07:34.486Z,11.68
2023-05-05T02:10:03.131Z,11.59
2023-05-05T02:12:31.768Z,11.58
2023-05-05T02:15:00.275Z,11.65
2023-05-05T02:17:27.783Z,11.66
2023-05-05T02:19:55.812Z,11.74
2023-05-05T02:22:22.942Z,11.80
2023-05-05T02:24:49.543Z,11.66
2023-05-05T02:27:18.929Z,11.64
2023-05-05T02:29:52.709Z,11.79
2023-05-05T02:32:28.675Z,11.70
2023-05-05T02:34:58.494Z,11.78
2023-05-05T02:37:29.700Z,11.59
2023-05-05T02:40:05.916Z,11.54
2023-05-05T02:42:39.741Z,11.46
2023-05-05T02:45:12.729Z,11.60
2023-05-05T02:47:39.604Z,11.44
2023-05-05T02:50:08.288Z,11.30
2023-05-05T02:52:35.930Z,11.29
2023-05-05T02:55:04.481Z,11.27
2023-05-05T02:57:57.413Z,11.49
2023-05-05T03:00:34.259Z,11.55
2023-05-05T03:03:13.905Z,11.59
2023-05-05T03:05:45.896Z,11.70
2023-05-05T03:08:30.224Z,11.71
2023-05-05T03:11:11.509Z,11.69
2023-05-05T03:13:42.794Z,11.57
2023-05-05T03:16:11.713Z,11.46
2023-05-05T03:18:39.824Z,11.59
2023-05-05T03:21:10.134Z,11.41
2023-05-05T03:23:37.456Z,11.47
2023-05-05T03:26:04.015Z,11.48
2023-05-05T03:28:30.540Z,11.50
2023-05-05T03:30:57.430Z,11.59
2023-05-05T03:33:24.015Z,11.54
2023-05-05T03:35:50.538Z,11.40
2023-05-05T03:38:17.715Z,11.28
2023-05-05T03:40:45.003Z,11.29
2023-05-05T03:43:12.079Z,11.48
2023-05-05T03:45:38.726Z,11.32
2023-05-05T03:48:05.684Z,11.18
2023-05-05T03:50:32.282Z,11.13
2023-05-05T03:52:58.742Z,11.15
2023-05-05T03:55:25.758Z,11.23
2023-05-05T03:57:52.535Z,11.33
2023-05-05T04:00:19.428Z,11.34
2023-05-05T04:02:45.931Z,11.35
2023-05-05T04:05:12.585Z,11.18
2023-05-05T04:07:39.216Z,11.12
2023-05-05T04:10:06.934Z,11.08
2023-05-05T04:12:33.975Z,11.22
2023-05-05T04:15:00.426Z,11.27
2023-05-05T04:17:27.073Z,11.20
2023-05-05T04:19:53.892Z,11.17
2023-05-05T04:22:20.453Z,11.21
2023-05-05T04:24:47.465Z,11.22
2023-05-05T04:27:14.235Z,11.40
2023-05-05T04:29:41.265Z,11.37
2023-05-05T04:32:07.912Z,11.27
2023-05-05T04:34:34.374Z,11.28
2023-05-05T04:37:01.108Z,11.29
2023-05-05T04:39:27.709Z,11.35
2023-05-05T04:41:54.249Z,11.43
2023-05-05T04:44:20.909Z,11.50
2023-05-05T04:46:47.398Z,11.66
2023-05-05T04:49:13.921Z,11.93
2023-05-05T04:51:43.494Z,12.20
2023-05-05T04:54:10.064Z,12.14
2023-05-05T04:56:37.045Z,12.10
2023-05-05T04:59:03.848Z,12.10
2023-05-05T05:01:31.686Z,12.33
2023-05-05T05:03:58.325Z,12.48
2023-05-05T05:06:24.934Z,12.60
2023-05-05T05:08:52.028Z,12.44
2023-05-05T05:11:18.672Z,12.54
2023-05-05T05:13:46.181Z,12.61
2023-05-05T05:16:12.992Z,12.68
2023-05-05T05:18:39.985Z,12.74
2023-05-05T05:21:07.302Z,12.77
2023-05-05T05:23:33.871Z,12.84
2023-05-05T05:26:00.365Z,12.99
2023-05-05T05:28:26.887Z,13.09
2023-05-05T05:30:53.869Z,13.03
2023-05-05T05:33:20.881Z,13.03
2023-05-05T05:35:47.522Z,12.99
2023-05-05T05:38:14.424Z,13.05
2023-05-05T05:40:41.270Z,13.16
2023-05-05T05:43:08.169Z,13.34
2023-05-05T05:45:34.749Z,13.40
2023-05-05T05:48:01.155Z,13.58
2023-05-05T05:50:28.737Z,13.74
2023-05-05T05:52:55.960Z,13.65
2023-05-05T05:55:22.376Z,13.64
2023-05-05T05:57:49.146Z,13.90
2023-05-05T06:00:16.043Z,14.10
2023-05-05T06:02:43.078Z,13.88
2023-05-05T06:05:10.298Z,13.80
2023-05-05T06:07:37.186Z,14.03
2023-05-05T06:10:22.884Z,14.33
2023-05-05T06:12:52.420Z,14.26
2023-05-05T06:15:18.962Z,14.33
2023-05-05T06:17:45.786Z,14.75
2023-05-05T06:20:13.775Z,14.91
2023-05-05T06:22:40.314Z,14.68
2023-05-05T06:25:07.108Z,14.54
2023-05-05T06:27:34.104Z,14.46
2023-05-05T06:30:00.670Z,14.68
2023-05-05T06:32:27.332Z,14.62
2023-05-05T06:34:53.765Z,14.79
2023-05-05T06:37:20.470Z,15.16
2023-05-05T06:39:46.922Z,14.96
2023-05-05T06:42:13.496Z,15.02
2023-05-05T06:44:40.425Z,15.23
2023-05-05T06:47:07.205Z,15.53
2023-05-05T06:49:33.646Z,15.83
2023-05-05T06:52:00.167Z,15.52
2023-05-05T06:54:26.888Z,15.83
2023-05-05T06:56:53.484Z,16.11
2023-05-05T06:59:19.975Z,16.10
2023-05-05T07:01:47.416Z,16.24
2023-05-05T07:04:13.830Z,16.28
2023-05-05T07:06:40.688Z,16.27
2023-05-05T07:09:07.225Z,16.49
2023-05-05T07:11:34.372Z,16.63
2023-05-05T07:14:01.080Z,16.82
2023-05-05T07:16:27.969Z,17.11
2023-05-05T07:18:55.205Z,16.97
2023-05-05T07:21:21.985Z,17.26
2023-05-05T07:23:48.591Z,17.20
2023-05-05T07:26:15.405Z,17.34
2023-05-05T07:28:43.084Z,17.46
2023-05-05T07:31:09.808Z,17.48
2023-05-05T07:33:36.483Z,17.70
2023-05-05T07:36:03.276Z,17.91
2023-05-05T07:38:29.819Z,18.28
2023-05-05T07:40:56.350Z,18.20
2023-05-05T07:43:22.957Z,18.45
2023-05-05T07:45:49.731Z,18.74
2023-05-05T07:48:17.242Z,18.78
2023-05-05T07:50:44.788Z,18.71
2023-05-05T07:53:14.882Z,18.73
2023-05-05T07:55:42.238Z,18.85
2023-05-05T07:58:10.945Z,18.99
2023-05-05T08:00:38.287Z,19.04
2023-05-05T08:03:04.975Z,19.29
2023-05-05T08:05:31.740Z,18.86
2023-05-05T08:07:58.739Z,19.00
2023-05-05T08:10:25.377Z,19.32
2023-05-05T08:12:54.287Z,19.63
2023-05-05T08:15:21.527Z,19.31
2023-05-05T08:17:53.092Z,19.45
2023-05-05T08:20:20.512Z,18.98
2023-05-05T08:22:48.277Z,19.46
2023-05-05T08:25:15.383Z,19.58
2023-05-05T08:27:43.145Z,20.10
2023-05-05T08:30:10.355Z,20.33
2023-05-05T08:32:38.295Z,20.33
2023-05-05T08:35:06.326Z,20.08
2023-05-05T08:37:34.142Z,20.45
2023-05-05T08:40:00.748Z,20.50
2023-05-05T08:42:37.211Z,19.85
2023-05-05T08:45:07.116Z,19.76
2023-05-05T08:47:35.477Z,19.89
2023-05-05T08:50:02.332Z,20.24
2023-05-05T08:52:37.845Z,20.09
2023-05-05T08:55:09.102Z,20.41
2023-05-05T08:57:57.252Z,20.86
2023-05-05T09:00:27.245Z,21.16
2023-05-05T09:02:57.140Z,21.05
2023-05-05T09:05:25.006Z,21.06
2023-05-05T09:07:52.244Z,21.03
2023-05-05T09:10:18.963Z,20.77
2023-05-05T09:12:46.541Z,20.52
2023-05-05T09:15:14.714Z,20.75
2023-05-05T09:17:42.285Z,20.88
2023-05-05T09:20:12.170Z,20.53
2023-05-05T09:22:46.534Z,20.30
2023-05-05T09:25:15.538Z,20.44
2023-05-05T09:27:45.927Z,20.98
2023-05-05T09:30:16.671Z,20.94
2023-05-05T09:32:51.407Z,21.29
2023-05-05T09:35:19.400Z,21.44
2023-05-05T09:37:46.875Z,21.08
2023-05-05T09:40:15.620Z,21.10
2023-05-05T09:42:42.763Z,20.78
2023-05-05T09:45:18.494Z,20.95
2023-05-05T09:47:46.896Z,21.25
2023-05-05T09:50:16.056Z,21.55
2023-05-05T09:52:43.233Z,22.00
2023-05-05T09:55:17.668Z,21.92
2023-05-05T09:57:44.437Z,21.85
2023-05-05T10:00:11.374Z,21.26
2023-05-05T10:02:39.819Z,21.08
2023-05-05T10:05:12.557Z,21.69
2023-05-05T10:07:41.185Z,22.06
2023-05-05T10:10:14.262Z,22.06
2023-05-05T10:12:42.118Z,22.13
2023-05-05T10:15:10.721Z,21.67
2023-05-05T10:17:58.373Z,21.14
2023-05-05T10:20:33.290Z,20.80
2023-05-05T10:23:05.466Z,20.44
2023-05-05T10:25:41.563Z,20.12
2023-05-05T10:28:11.817Z,19.93
2023-05-05T10:30:44.602Z,19.62
2023-05-05T10:35:53.825Z,19.24
2023-05-05T10:38:21.463Z,19.12
2023-05-05T10:40:49.078Z,18.79
2023-05-05T10:43:15.682Z,18.87
2023-05-05T10:45:43.710Z,18.65
2023-05-05T10:48:18.639Z,18.45
2023-05-05T10:50:51.668Z,17.88
2023-05-05T10:53:28.528Z,17.89
2023-05-05T10:56:16.469Z,17.87
2023-05-05T10:58:55.565Z,17.58
2023-05-05T11:01:36.419Z,17.44
2023-05-05T11:04:24.787Z,17.84
2023-05-05T11:07:13.442Z,18.16
2023-05-05T11:10:14.638Z,18.42
2023-05-05T11:12:54.766Z,18.35
2023-05-05T11:15:27.321Z,18.77
2023-05-05T11:17:56.044Z,19.20
2023-05-05T11:20:35.026Z,19.43
2023-05-05T11:23:02.443Z,19.42
2023-05-05T11:25:35.343Z,20.31
2023-05-05T11:28:19.310Z,20.11
2023-05-05T11:30:54.805Z,20.68
2023-05-05T11:33:31.012Z,21.68
2023-05-05T11:36:08.943Z,22.70
2023-05-05T11:38:41.353Z,22.84
2023-05-05T11:41:26.670Z,23.08
2023-05-05T11:44:15.879Z,22.90
2023-05-05T11:46:51.436Z,22.16
2023-05-05T11:49:31.618Z,21.31
2023-05-05T11:52:02.762Z,20.90
2023-05-05T11:54:30.848Z,20.53
2023-05-05T11:56:59.580Z,20.21
2023-05-05T11:59:26.842Z,20.50
2023-05-05T12:01:53.740Z,20.03
2023-05-05T12:04:21.898Z,19.43
2023-05-05T12:06:49.058Z,18.83
2023-05-05T12:09:16.405Z,18.44
2023-05-05T12:11:57.102Z,18.56
2023-05-05T12:14:24.495Z,18.25
2023-05-05T12:16:55.651Z,18.03
2023-05-05T12:19:22.798Z,18.04
2023-05-05T12:21:50.227Z,18.21
2023-05-05T12:24:17.101Z,18.23
2023-05-05T12:26:43.993Z,18.52
2023-05-05T12:29:10.803Z,18.45
2023-05-05T12:31:42.150Z,18.03
2023-05-05T12:34:10.685Z,18.00
2023-05-05T12:36:37.497Z,17.79
2023-05-05T12:39:07.455Z,17.77
2023-05-05T12:41:34.658Z,17.82
2023-05-05T12:44:03.167Z,17.96
2023-05-05T12:46:30.966Z,17.86
2023-05-05T12:49:05.704Z,17.51
2023-05-05T12:51:36.441Z,17.32
2023-05-05T12:54:11.311Z,17.01
2023-05-05T12:56:48.118Z,16.86
2023-05-05T12:59:21.090Z,16.89
2023-05-05T13:01:53.224Z,17.25
2023-05-05T13:04:21.651Z,17.11
2023-05-05T13:06:49.655Z,16.90
2023-05-05T13:09:34.350Z,17.18
2023-05-05T13:12:04.595Z,17.59
2023-05-05T13:14:31.809Z,18.18
2023-05-05T13:16:58.835Z,18.53
2023-05-05T13:19:26.278Z,18.61
2023-05-05T13:21:53.578Z,18.76
2023-05-05T13:24:31.185Z,19.09
2023-05-05T13:27:05.475Z,19.41
2023-05-05T13:29:33.163Z,19.70
2023-05-05T13:32:00.145Z,19.35
2023-05-05T13:34:27.051Z,19.14
2023-05-05T13:36:53.678Z,19.27
2023-05-05T13:39:20.288Z,18.69
2023-05-05T13:41:46.735Z,18.41
2023-05-05T13:44:14.029Z,18.45
2023-05-05T13:46:42.514Z,18.35
2023-05-05T13:49:09.304Z,18.10
2023-05-05T13:51:36.863Z,18.58
2023-05-05T13:54:04.109Z,18.17
2023-05-05T13:56:31.068Z,18.13
2023-05-05T13:58:57.828Z,18.03
2023-05-05T14:01:24.616Z,17.92
2023-05-05T14:03:51.560Z,17.62
2023-05-05T14:06:18.283Z,17.59
2023-05-05T14:08:46.249Z,17.53
2023-05-05T14:11:13.696Z,17.48
2023-05-05T14:13:40.546Z,17.48
2023-05-05T14:16:06.909Z,17.42
2023-05-05T14:18:34.099Z,17.66
2023-05-05T14:21:00.612Z,17.38
2023-05-05T14:23:27.396Z,17.48
2023-05-05T14:25:54.538Z,17.45
2023-05-05T14:28:21.022Z,17.93
2023-05-05T14:30:47.579Z,17.84
2023-05-05T14:33:14.027Z,17.94
2023-05-05T14:35:40.896Z,18.16
2023-05-05T14:38:26.691Z,18.64
2023-05-05T14:40:53.396Z,18.58
2023-05-05T14:43:21.831Z,18.54
2023-05-05T14:45:48.772Z,18.59
2023-05-05T14:48:15.782Z,18.77
2023-05-05T14:50:42.753Z,19.41
2023-05-05T14:53:09.607Z,19.88
2023-05-05T14:55:37.056Z,20.05
2023-05-05T14:58:03.658Z,20.18
2023-05-05T15:00:30.131Z,20.09
2023-05-05T15:02:56.798Z,19.63
2023-05-05T15:05:23.271Z,19.23
2023-05-05T15:07:49.861Z,19.29
2023-05-05T15:10:16.524Z,19.53
2023-05-05T15:12:43.500Z,19.68
2023-05-05T15:15:10.592Z,19.52
2023-05-05T15:17:38.649Z,19.42
2023-05-05T15:20:06.678Z,19.32
2023-05-05T15:22:33.379Z,19.26
2023-05-05T15:25:00.244Z,19.04
2023-05-05T15:27:27.026Z,18.56
2023-05-05T15:29:54.412Z,18.72
2023-05-05T15:32:21.202Z,18.53
2023-05-05T15:34:50.223Z,18.31
2023-05-05T15:37:17.099Z,18.42
2023-05-05T15:39:43.699Z,18.67
2023-05-05T15:42:10.204Z,18.93
2023-05-05T15:44:38.182Z,19.75
2023-05-05T15:47:06.308Z,19.96
2023-05-05T15:49:32.810Z,19.60
2023-05-05T15:51:59.652Z,19.47
2023-05-05T15:54:26.374Z,19.84
2023-05-05T15:56:52.980Z,19.38
2023-05-05T15:59:19.531Z,20.70
2023-05-05T16:01:46.659Z,21.04
2023-05-05T16:04:13.867Z,19.66
2023-05-05T16:06:40.874Z,19.52
2023-05-05T16:09:07.506Z,19.11
2023-05-05T16:11:34.183Z,19.45
2023-05-05T16:14:00.970Z,19.02
2023-05-05T16:16:27.602Z,18.68
2023-05-05T16:18:54.734Z,18.65
2023-05-05T16:21:21.169Z,18.46
2023-05-05T16:23:47.703Z,18.22
2023-05-05T16:26:14.196Z,18.11
2023-05-05T16:28:40.785Z,17.63
2023-05-05T16:31:09.425Z,17.19
2023-05-05T16:33:40.675Z,17.03
2023-05-05T16:36:09.969Z,16.53
2023-05-05T16:38:37.326Z,16.42
2023-05-05T16:41:04.104Z,16.12
2023-05-05T16:43:30.854Z,16.17
2023-05-05T16:45:57.568Z,16.19
2023-05-05T16:48:24.544Z,16.32
2023-05-05T16:50:51.180Z,16.59
2023-05-05T16:53:18.046Z,16.61
2023-05-05T16:55:44.565Z,16.66
2023-05-05T16:58:12.385Z,16.67
2023-05-05T17:00:39.403Z,16.57
2023-05-05T17:03:06.233Z,16.70
2023-05-05T17:05:32.790Z,16.71
2023-05-05T17:07:59.303Z,16.64
2023-05-05T17:10:25.774Z,16.61
2023-05-05T17:12:52.714Z,16.63
2023-05-05T17:15:19.093Z,16.48
2023-05-05T17:17:45.810Z,16.32
2023-05-05T17:20:12.991Z,16.30
2023-05-05T17:22:40.275Z,16.07
2023-05-05T17:25:07.362Z,15.91
2023-05-05T17:27:34.048Z,15.87
2023-05-05T17:32:27.187Z,15.63
2023-05-05T17:34:54.301Z,15.53
2023-05-05T17:37:20.973Z,15.65
2023-05-05T17:39:47.539Z,15.62
2023-05-05T17:42:14.218Z,15.59
2023-05-05T17:44:40.895Z,15.69
2023-05-05T17:47:07.768Z,16.08
2023-05-05T17:49:34.715Z,16.36
2023-05-05T17:52:01.378Z,16.41
2023-05-05T17:54:29.922Z,16.17
2023-05-05T17:56:57.362Z,15.91
2023-05-05T17:59:23.872Z,15.98
2023-05-05T18:01:50.528Z,15.79
2023-05-05T18:04:17.439Z,15.74
2023-05-05T18:06:44.171Z,15.73
2023-05-05T18:09:11.982Z,15.61
2023-05-05T18:11:38.494Z,15.38
2023-05-05T18:14:05.381Z,15.35
2023-05-05T18:16:31.879Z,15.37
2023-05-05T18:18:58.896Z,15.32
2023-05-05T18:21:25.781Z,15.31
2023-05-05T18:23:57.297Z,15.30
2023-05-05T18:26:28.634Z,15.32
2023-05-05T18:28:55.070Z,15.25
2023-05-05T18:31:22.165Z,15.23
2023-05-05T18:33:48.896Z,15.15
2023-05-05T18:36:15.705Z,15.05
2023-05-05T18:38:42.182Z,15.04
2023-05-05T18:41:08.850Z,14.99
2023-05-05T18:43:36.229Z,14.91
2023-05-05T18:46:02.888Z,14.87
2023-05-05T18:48:30.530Z,14.83
2023-05-05T18:51:04.126Z,14.78
2023-05-05T18:53:31.805Z,14.79
2023-05-05T18:55:59.027Z,14.77
2023-05-05T18:58:26.596Z,14.72
2023-05-05T19:00:53.383Z,14.58
2023-05-05T19:03:20.204Z,14.48
2023-05-05T19:05:46.982Z,14.57
2023-05-05T19:08:13.926Z,14.59
2023-05-05T19:10:40.803Z,14.37
2023-05-05T19:13:09.812Z,14.21
2023-05-05T19:15:36.722Z,14.11
2023-05-05T19:18:05.525Z,14.08
2023-05-05T19:20:32.480Z,14.11
2023-05-05T19:23:03.578Z,14.05
2023-05-05T19:25:31.356Z,14.17
2023-05-05T19:27:58.258Z,14.10
2023-05-05T19:30:26.383Z,13.99
2023-05-05T19:32:53.476Z,13.87
2023-05-05T19:35:20.044Z,13.96
2023-05-05T19:37:47.030Z,13.99
2023-05-05T19:40:14.062Z,13.94
2023-05-05T19:42:41.202Z,13.95
2023-05-05T19:45:08.156Z,13.89
2023-05-05T19:47:35.717Z,13.88
2023-05-05T19:50:02.512Z,13.82
2023-05-05T19:52:29.127Z,13.82
2023-05-05T19:54:55.989Z,13.74
2023-05-05T19:57:22.699Z,13.71
2023-05-05T19:59:49.548Z,13.73
2023-05-05T20:02:21.841Z,13.75
2023-05-05T20:04:49.504Z,13.58
2023-05-05T20:07:17.771Z,13.43
2023-05-05T20:09:45.099Z,13.61
2023-05-05T20:12:12.172Z,13.66
2023-05-05T20:14:39.558Z,13.51
2023-05-05T20:17:06.029Z,13.56
2023-05-05T20:19:32.848Z,13.70
2023-05-05T20:21:59.489Z,13.62
2023-05-05T20:24:28.882Z,13.33
2023-05-05T20:26:55.587Z,13.29
2023-05-05T20:29:22.571Z,13.05
2023-05-05T20:31:49.190Z,12.88
2023-05-05T20:34:16.261Z,12.74
2023-05-05T20:36:43.132Z,12.65
2023-05-05T20:39:15.243Z,12.61
2023-05-05T20:41:42.017Z,12.50
2023-05-05T20:44:11.449Z,12.62
2023-05-05T20:46:38.046Z,12.56
2023-05-05T20:49:04.613Z,12.37
2023-05-05T20:51:34.166Z,12.27
2023-05-05T20:54:02.109Z,12.37
2023-05-05T20:56:28.760Z,12.25
2023-05-05T20:58:56.655Z,12.17
2023-05-05T21:01:24.477Z,12.12
2023-05-05T21:03:51.391Z,12.07
2023-05-05T21:06:19.512Z,12.05
2023-05-05T21:08:47.126Z,12.00
2023-05-05T21:11:13.643Z,12.12
2023-05-05T21:13:40.252Z,12.03
2023-05-05T21:16:06.814Z,12.02
2023-05-05T21:18:33.390Z,12.12
2023-05-05T21:21:01.196Z,12.24
2023-05-05T21:23:28.281Z,12.30
2023-05-05T21:25:55.369Z,12.37
2023-05-05T21:28:21.939Z,12.27
2023-05-05T21:31:10.364Z,12.06
2023-05-05T21:33:37.449Z,12.11
2023-05-05T21:36:04.519Z,12.36
2023-05-05T21:38:31.104Z,12.47
2023-05-05T21:40:58.431Z,12.44
2023-05-05T21:43:26.647Z,12.33
2023-05-05T21:46:03.368Z,12.19
2023-05-05T21:48:31.277Z,11.94
2023-05-05T21:50:57.976Z,11.99
2023-05-05T21:53:24.812Z,11.87
2023-05-05T21:55:51.906Z,11.92
2023-05-05T21:58:18.305Z,11.97
2023-05-05T22:00:44.972Z,12.03
2023-05-05T22:03:11.521Z,11.99
2023-05-05T22:05:38.493Z,11.92
2023-05-05T22:08:05.272Z,12.00
2023-05-05T22:10:32.125Z,11.91
2023-05-05T22:12:58.802Z,11.90
2023-05-05T22:15:29.850Z,11.86
2023-05-05T22:17:59.448Z,11.89
2023-05-05T22:20:26.191Z,11.86
2023-05-05T22:22:52.966Z,11.87
2023-05-05T22:25:19.673Z,11.88
2023-05-05T22:27:46.849Z,11.86
2023-05-05T22:30:14.008Z,11.92
2023-05-05T22:32:43.283Z,11.87
2023-05-05T22:35:09.947Z,11.93
2023-05-05T22:37:37.137Z,11.92
2023-05-05T22:40:04.668Z,11.86
2023-05-05T22:42:31.161Z,11.78
2023-05-05T22:44:57.796Z,11.88
2023-05-05T22:47:24.397Z,11.90
2023-05-05T22:49:50.926Z,11.95
2023-05-05T22:52:17.932Z,11.90
2023-05-05T22:54:44.573Z,11.90
2023-05-05T22:57:11.555Z,11.84
2023-05-05T22:59:38.154Z,11.82
2023-05-05T23:02:05.108Z,11.83
2023-05-05T23:04:31.786Z,11.88
2023-05-05T23:06:58.768Z,11.83
2023-05-05T23:09:25.657Z,11.74
2023-05-05T23:11:52.373Z,11.76
2023-05-05T23:14:19.479Z,11.85
2023-05-05T23:16:46.428Z,11.92
2023-05-05T23:19:13.709Z,11.89
2023-05-05T23:21:51.933Z,11.87
2023-05-05T23:24:19.686Z,11.93
2023-05-05T23:26:46.084Z,11.81
2023-05-05T23:29:12.767Z,11.86
2023-05-05T23:31:39.445Z,11.83
2023-05-05T23:34:06.246Z,11.93
2023-05-05T23:36:32.782Z,11.86
2023-05-05T23:38:59.364Z,11.94
2023-05-05T23:41:25.961Z,11.96
2023-05-05T23:43:53.381Z,11.81
2023-05-05T23:46:19.927Z,11.63
2023-05-05T23:48:46.565Z,11.56
2023-05-05T23:51:13.220Z,11.52
2023-05-05T23:53:40.056Z,11.49
2023-05-05T23:56:07.486Z,11.49
2023-05-05T23:58:34.463Z,11.48
